createdAt,value
2019-02-23T00:03:58.730Z,7.87
2019-02-23T00:06:40.810Z,9.60
2019-02-23T00:09:23.098Z,8.67
2019-02-23T00:12:05.238Z,9.47
2019-02-23T00:14:47.108Z,8.73
2019-02-23T00:17:29.262Z,9.20
2019-02-23T00:20:18.588Z,9.37
2019-02-23T00:23:04.799Z,9.67
2019-02-23T00:25:47.034Z,11.63
2019-02-23T00:28:29.468Z,10.03
2019-02-23T00:31:11.780Z,10.33
2019-02-23T00:33:53.918Z,11.10
2019-02-23T00:36:35.817Z,11.93
2019-02-23T00:39:36.894Z,10.07
2019-02-23T00:42:22.953Z,8.87
2019-02-23T00:47:54.079Z,9.40
2019-02-23T00:50:42.036Z,10.37
2019-02-23T00:53:23.946Z,10.80
2019-02-23T00:55:54.223Z,9.90
2019-02-23T01:01:44.750Z,11.60
2019-02-23T01:04:26.691Z,10.63
2019-02-23T01:07:08.539Z,10.23
2019-02-23T01:09:50.415Z,10.53
2019-02-23T01:12:20.718Z,10.80
2019-02-23T01:15:04.339Z,10.13
2019-02-23T01:17:46.689Z,12.40
2019-02-23T01:20:28.682Z,12.27
2019-02-23T01:23:10.964Z,13.30
2019-02-23T01:25:52.848Z,11.53
2019-02-23T01:28:35.218Z,13.17
2019-02-23T01:31:17.236Z,12.53
2019-02-23T01:37:24.678Z,10.77
2019-02-23T01:40:06.727Z,13.47
2019-02-23T01:42:48.828Z,12.77
2019-02-23T01:45:30.379Z,12.03
2019-02-23T01:48:12.200Z,12.00
2019-02-23T01:50:53.937Z,12.57
2019-02-23T01:53:36.628Z,12.67
2019-02-23T01:59:25.316Z,11.83
2019-02-23T02:02:07.514Z,13.83
2019-02-23T02:04:49.542Z,14.27
2019-02-23T02:07:32.664Z,12.50
2019-02-23T02:10:15.037Z,14.33
2019-02-23T02:12:57.009Z,14.20
2019-02-23T02:15:39.125Z,14.57
2019-02-23T02:18:21.247Z,14.63
2019-02-23T02:21:03.657Z,12.80
2019-02-23T02:23:45.753Z,16.80
2019-02-23T02:26:28.083Z,14.90
2019-02-23T02:29:10.301Z,15.87
2019-02-23T02:31:52.484Z,15.60
2019-02-23T02:34:34.650Z,14.30
2019-02-23T02:37:16.839Z,16.50
2019-02-23T02:39:59.150Z,13.53
2019-02-23T02:42:41.309Z,14.27
2019-02-23T02:45:23.270Z,15.90
2019-02-23T02:47:53.540Z,16.07
2019-02-23T02:50:35.801Z,15.27
2019-02-23T02:53:18.012Z,14.87
2019-02-23T02:56:00.233Z,15.83
2019-02-23T02:58:42.323Z,18.23
2019-02-23T03:01:24.541Z,15.80
2019-02-23T03:04:06.729Z,14.67
2019-02-23T03:06:48.822Z,16.80
2019-02-23T03:09:31.249Z,14.70
2019-02-23T03:12:13.368Z,14.73
2019-02-23T03:14:55.827Z,16.30
2019-02-23T03:17:37.911Z,14.97
2019-02-23T03:20:19.918Z,16.60
2019-02-23T03:23:02.219Z,17.17
2019-02-23T03:28:52.368Z,16.30
2019-02-23T03:34:47.528Z,17.87
2019-02-23T03:37:29.523Z,17.23
2019-02-23T03:40:11.588Z,15.70
2019-02-23T03:42:53.407Z,16.97
2019-02-23T03:45:35.426Z,19.00
2019-02-23T03:48:17.327Z,19.17
2019-02-23T03:50:59.361Z,17.27
2019-02-23T03:53:41.290Z,16.93
2019-02-23T03:56:23.054Z,16.97
2019-02-23T03:59:05.085Z,16.20
2019-02-23T04:01:47.326Z,15.77
2019-02-23T04:04:29.531Z,19.53
2019-02-23T04:07:11.777Z,16.70
2019-02-23T04:09:54.218Z,19.33
2019-02-23T04:12:36.191Z,16.47
2019-02-23T04:15:21.532Z,17.70
2019-02-23T04:18:03.718Z,17.63
2019-02-23T04:20:45.706Z,14.67
2019-02-23T04:23:27.587Z,15.33
2019-02-23T04:26:09.652Z,17.20
2019-02-23T04:31:59.044Z,16.80
2019-02-23T04:34:41.151Z,16.93
2019-02-23T04:37:23.749Z,16.47
2019-02-23T04:40:05.390Z,17.27
2019-02-23T04:46:12.830Z,16.40
2019-02-23T04:48:55.503Z,19.97
2019-02-23T04:51:37.932Z,17.90
2019-02-23T04:54:20.661Z,16.87
2019-02-23T04:57:03.042Z,17.63
2019-02-23T04:59:45.177Z,18.53
2019-02-23T05:02:27.576Z,19.10
2019-02-23T05:05:09.522Z,18.27
2019-02-23T05:07:51.763Z,16.90
2019-02-23T05:10:33.989Z,19.80
2019-02-23T05:16:24.803Z,17.83
2019-02-23T05:19:06.364Z,19.93
2019-02-23T05:21:48.580Z,21.03
2019-02-23T05:24:30.398Z,19.50
2019-02-23T05:27:15.750Z,21.63
2019-02-23T05:29:57.718Z,19.90
2019-02-23T05:32:39.865Z,18.60
2019-02-23T05:35:21.614Z,20.10
2019-02-23T05:38:03.499Z,20.33
2019-02-23T05:40:45.441Z,22.00
2019-02-23T05:43:27.189Z,20.10
2019-02-23T05:46:08.956Z,20.73
2019-02-23T05:48:50.974Z,20.77
2019-02-23T05:51:38.708Z,21.73
2019-02-23T05:54:14.882Z,22.60
2019-02-23T05:56:56.893Z,21.80
2019-02-23T05:59:38.974Z,21.60
2019-02-23T06:02:21.114Z,19.87
2019-02-23T06:05:03.566Z,22.63
2019-02-23T06:10:59.305Z,23.27
2019-02-23T06:13:41.361Z,22.10
2019-02-23T06:16:23.345Z,21.50
2019-02-23T06:19:05.342Z,22.73
2019-02-23T06:21:53.629Z,22.27
2019-02-23T06:24:31.079Z,24.27
2019-02-23T06:27:13.125Z,21.67
2019-02-23T06:29:55.315Z,19.77
2019-02-23T06:32:37.524Z,24.20
2019-02-23T06:35:19.777Z,21.70
2019-02-23T06:37:53.363Z,21.20
2019-02-23T06:41:02.353Z,22.93
2019-02-23T06:43:44.439Z,20.83
2019-02-23T06:46:26.597Z,20.37
2019-02-23T06:49:08.281Z,23.83
2019-02-23T06:51:50.514Z,23.27
2019-02-23T06:57:55.301Z,38.13
2019-02-23T07:00:37.729Z,23.57
2019-02-23T07:03:08.190Z,21.10
2019-02-23T07:05:58.824Z,21.50
2019-02-23T07:08:42.287Z,21.33
2019-02-23T07:11:24.824Z,22.27
2019-02-23T07:14:07.837Z,23.60
2019-02-23T07:16:50.056Z,24.23
2019-02-23T07:19:31.851Z,23.10
2019-02-23T07:22:15.720Z,24.33
2019-02-23T07:24:57.758Z,26.00
2019-02-23T07:27:39.645Z,23.93
2019-02-23T07:30:21.154Z,25.33
2019-02-23T07:33:03.036Z,24.63
2019-02-23T07:35:44.986Z,26.23
2019-02-23T07:38:26.662Z,24.67
2019-02-23T07:41:08.726Z,23.00
2019-02-23T07:43:51.958Z,24.27
2019-02-23T07:46:34.115Z,24.30
2019-02-23T07:49:16.638Z,23.53
2019-02-23T07:52:04.780Z,25.17
2019-02-23T07:54:46.969Z,23.53
2019-02-23T07:57:35.164Z,23.73
2019-02-23T08:00:05.673Z,26.10
2019-02-23T08:02:48.440Z,26.23
2019-02-23T08:05:30.509Z,22.90
2019-02-23T08:08:12.601Z,22.07
2019-02-23T08:10:55.150Z,24.50
2019-02-23T08:13:40.610Z,25.40
2019-02-23T08:16:21.416Z,23.53
2019-02-23T08:19:03.898Z,23.17
2019-02-23T08:21:46.190Z,26.23
2019-02-23T08:24:28.334Z,25.20
2019-02-23T08:27:10.109Z,21.80
2019-02-23T08:29:52.017Z,26.03
2019-02-23T08:32:34.555Z,23.07
2019-02-23T08:35:16.701Z,27.53
2019-02-23T08:37:58.470Z,26.07
2019-02-23T08:44:05.540Z,24.77
2019-02-23T08:46:47.689Z,22.27
2019-02-23T08:49:31.161Z,21.57
2019-02-23T08:52:13.118Z,26.10
2019-02-23T08:54:55.651Z,21.87
2019-02-23T08:57:37.650Z,23.70
2019-02-23T09:00:19.949Z,24.63
2019-02-23T09:03:02.263Z,25.33
2019-02-23T09:05:34.548Z,24.73
2019-02-23T09:08:24.240Z,22.63
2019-02-23T09:11:06.602Z,23.23
2019-02-23T09:13:48.851Z,23.50
2019-02-23T09:16:31.577Z,26.47
2019-02-23T09:19:14.247Z,25.47
2019-02-23T09:25:06.277Z,25.17
2019-02-23T09:27:48.449Z,23.93
2019-02-23T09:30:31.827Z,22.70
2019-02-23T09:33:14.621Z,23.57
2019-02-23T09:35:58.394Z,24.63
2019-02-23T09:38:41.708Z,23.43
2019-02-23T09:41:23.970Z,23.10
2019-02-23T09:44:06.139Z,22.50
2019-02-23T09:46:48.027Z,22.33
2019-02-23T09:49:30.034Z,23.23
2019-02-23T09:52:12.068Z,23.33
2019-02-23T09:54:55.229Z,24.80
2019-02-23T09:57:37.311Z,24.03
2019-02-23T10:00:19.479Z,23.27
2019-02-23T10:03:02.133Z,23.40
2019-02-23T10:05:44.509Z,23.93
2019-02-23T10:08:27.063Z,24.80
2019-02-23T10:11:09.193Z,23.07
2019-02-23T10:13:50.891Z,28.23
2019-02-23T10:16:32.777Z,24.27
2019-02-23T10:19:03.043Z,23.37
2019-02-23T10:21:52.397Z,31.80
2019-02-23T10:24:36.192Z,27.80
2019-02-23T10:27:18.807Z,24.00
2019-02-23T10:30:00.810Z,22.37
2019-02-23T10:32:44.467Z,24.90
2019-02-23T10:35:26.546Z,22.07
2019-02-23T10:38:10.668Z,22.87
2019-02-23T10:40:56.294Z,21.73
2019-02-23T10:43:42.456Z,23.77
2019-02-23T10:46:28.644Z,24.23
2019-02-23T10:49:11.691Z,20.70
2019-02-23T10:51:54.434Z,23.87
2019-02-23T10:54:36.186Z,20.67
2019-02-23T10:57:18.269Z,22.03
2019-02-23T11:00:00.254Z,20.90
2019-02-23T11:05:50.935Z,22.47
2019-02-23T11:08:33.188Z,23.97
2019-02-23T11:11:17.234Z,22.87
2019-02-23T11:13:59.736Z,20.93
2019-02-23T11:16:43.046Z,20.47
2019-02-23T11:19:25.626Z,22.47
2019-02-23T11:22:09.085Z,21.33
2019-02-23T11:24:50.755Z,20.07
2019-02-23T11:27:32.990Z,21.83
2019-02-23T11:30:15.333Z,20.43
2019-02-23T11:32:57.406Z,19.87
2019-02-23T11:35:39.905Z,22.27
2019-02-23T11:38:22.871Z,20.77
2019-02-23T11:41:04.886Z,19.67
2019-02-23T11:43:46.791Z,20.23
2019-02-23T11:46:30.847Z,19.17
2019-02-23T11:49:14.855Z,18.60
2019-02-23T11:51:57.146Z,16.70
2019-02-23T11:58:07.767Z,19.00
2019-02-23T12:00:50.014Z,17.63
2019-02-23T12:03:31.958Z,16.73
2019-02-23T12:06:14.359Z,16.77
2019-02-23T12:08:57.421Z,17.50
2019-02-23T12:11:39.809Z,29.67
2019-02-23T12:17:30.389Z,21.93
2019-02-23T12:20:12.558Z,20.20
2019-02-23T12:23:13.738Z,16.53
2019-02-23T12:25:55.789Z,16.10
2019-02-23T12:28:37.681Z,16.70
2019-02-23T12:31:19.870Z,16.27
2019-02-23T12:34:02.010Z,15.63
2019-02-23T12:36:44.399Z,17.10
2019-02-23T12:42:33.625Z,16.70
2019-02-23T12:45:15.510Z,16.93
2019-02-23T12:47:57.634Z,16.57
2019-02-23T12:54:05.174Z,14.07
2019-02-23T12:56:48.084Z,15.23
2019-02-23T12:59:30.304Z,16.27
2019-02-23T13:02:12.435Z,13.63
2019-02-23T13:04:54.552Z,13.47
2019-02-23T13:07:55.667Z,16.60
2019-02-23T13:10:37.302Z,15.37
2019-02-23T13:13:38.916Z,13.40
2019-02-23T13:16:21.277Z,15.13
2019-02-23T13:22:28.222Z,18.13
2019-02-23T13:25:10.197Z,14.03
2019-02-23T13:28:10.991Z,13.60
2019-02-23T13:30:52.994Z,14.38
2019-02-23T13:33:34.813Z,14.80
2019-02-23T13:39:30.038Z,13.63
2019-02-23T13:42:11.981Z,13.60
2019-02-23T13:44:54.159Z,13.67
2019-02-23T13:47:35.762Z,12.97
2019-02-23T13:50:28.420Z,12.85
2019-02-23T13:53:10.525Z,14.83
2019-02-23T13:55:53.657Z,13.37
2019-02-23T14:01:42.978Z,14.23
2019-02-23T14:07:51.381Z,12.77
2019-02-23T14:10:33.609Z,12.60
2019-02-23T14:13:15.672Z,14.10
2019-02-23T14:15:57.578Z,14.10
2019-02-23T14:18:39.496Z,14.47
2019-02-23T14:21:21.356Z,11.57
2019-02-23T14:24:02.979Z,14.03
2019-02-23T14:26:45.169Z,12.07
2019-02-23T14:29:27.261Z,11.87
2019-02-23T14:32:09.250Z,11.10
2019-02-23T14:34:51.439Z,14.03
2019-02-23T14:37:33.557Z,13.80
2019-02-23T14:40:15.621Z,13.03
2019-02-23T14:42:57.615Z,9.77
2019-02-23T14:45:39.460Z,10.60
2019-02-23T14:48:21.177Z,12.30
2019-02-23T14:51:03.031Z,10.33
2019-02-23T14:53:44.866Z,11.57
2019-02-23T14:56:26.869Z,15.97
2019-02-23T14:59:10.908Z,13.17
2019-02-23T15:01:52.831Z,14.30
2019-02-23T15:04:36.386Z,11.30
2019-02-23T15:07:18.609Z,11.65
2019-02-23T15:10:00.739Z,11.55
2019-02-23T15:12:42.662Z,11.10
2019-02-23T15:15:24.534Z,11.33
2019-02-23T15:18:06.654Z,11.30
2019-02-23T15:20:48.617Z,10.28
2019-02-23T15:23:31.559Z,11.37
2019-02-23T15:26:13.487Z,11.73
2019-02-23T15:28:55.617Z,11.80
2019-02-23T15:31:37.236Z,11.90
2019-02-23T15:34:19.525Z,11.10
2019-02-23T15:37:01.588Z,11.83
2019-02-23T15:39:43.606Z,11.17
2019-02-23T15:42:25.561Z,11.70
2019-02-23T15:45:07.781Z,10.80
2019-02-23T15:47:50.255Z,11.77
2019-02-23T15:50:32.668Z,12.60
2019-02-23T15:53:15.072Z,12.90
2019-02-23T15:55:57.449Z,10.93
2019-02-23T15:58:39.284Z,11.67
2019-02-23T16:01:21.500Z,10.40
2019-02-23T16:04:03.448Z,10.93
2019-02-23T16:06:45.470Z,9.03
2019-02-23T16:09:27.853Z,7.73
2019-02-23T16:12:10.152Z,9.47
2019-02-23T16:14:53.566Z,9.63
2019-02-23T16:17:35.915Z,8.97
2019-02-23T16:20:17.881Z,10.17
2019-02-23T16:23:00.118Z,12.83
2019-02-23T16:25:42.409Z,9.67
2019-02-23T16:28:24.311Z,11.37
2019-02-23T16:31:06.553Z,11.03
2019-02-23T16:33:48.613Z,12.03
2019-02-23T16:36:30.664Z,12.93
2019-02-23T16:39:12.407Z,15.10
2019-02-23T16:41:54.229Z,10.80
2019-02-23T16:44:37.356Z,10.20
2019-02-23T16:47:17.741Z,9.20
2019-02-23T16:49:59.682Z,9.40
2019-02-23T16:52:41.795Z,11.83
2019-02-23T16:55:24.053Z,9.03
2019-02-23T16:58:06.179Z,11.13
2019-02-23T17:00:48.167Z,13.23
2019-02-23T17:03:30.210Z,11.83
2019-02-23T17:06:12.396Z,11.67
2019-02-23T17:08:54.615Z,11.70
2019-02-23T17:11:36.690Z,15.40
2019-02-23T17:14:18.811Z,17.30
2019-02-23T17:17:01.117Z,19.07
2019-02-23T17:19:43.166Z,18.07
2019-02-23T17:22:25.362Z,16.13
2019-02-23T17:25:07.676Z,16.20
2019-02-23T17:27:49.798Z,16.27
2019-02-23T17:30:32.307Z,15.17
2019-02-23T17:33:14.373Z,13.77
2019-02-23T17:35:54.818Z,12.77
2019-02-23T17:38:38.101Z,14.27
2019-02-23T17:41:20.094Z,13.83
2019-02-23T17:44:02.279Z,13.70
2019-02-23T17:46:44.529Z,14.53
2019-02-23T17:49:26.784Z,13.43
2019-02-23T17:52:08.846Z,13.03
2019-02-23T17:54:51.182Z,13.43
2019-02-23T17:57:33.252Z,15.57
2019-02-23T18:00:17.683Z,13.10
2019-02-23T18:06:24.158Z,14.10
2019-02-23T18:09:06.212Z,13.17
2019-02-23T18:11:49.930Z,13.50
2019-02-23T18:14:31.879Z,12.60
2019-02-23T18:17:13.825Z,19.63
2019-02-23T18:19:56.194Z,15.57
2019-02-23T18:22:37.915Z,16.43
2019-02-23T18:25:19.963Z,15.93
2019-02-23T18:28:01.813Z,14.63
2019-02-23T18:30:43.976Z,13.77
2019-02-23T18:33:25.942Z,14.57
2019-02-23T18:36:07.790Z,15.13
2019-02-23T18:38:49.654Z,12.90
2019-02-23T18:41:31.733Z,13.13
2019-02-23T18:44:14.279Z,11.57
2019-02-23T18:46:56.564Z,14.43
2019-02-23T18:49:39.417Z,12.80
2019-02-23T18:52:21.666Z,12.30
2019-02-23T18:57:53.315Z,17.63
2019-02-23T19:00:35.291Z,17.47
2019-02-23T19:03:16.902Z,13.63
2019-02-23T19:05:58.731Z,16.20
2019-02-23T19:08:40.837Z,12.97
2019-02-23T19:11:22.642Z,14.37
2019-02-23T19:14:04.616Z,11.93
2019-02-23T19:16:46.733Z,14.17
2019-02-23T19:19:28.985Z,15.20
2019-02-23T19:22:10.745Z,15.90
2019-02-23T19:24:53.033Z,14.80
2019-02-23T19:27:35.851Z,13.07
2019-02-23T19:30:17.837Z,15.20
2019-02-23T19:32:59.611Z,40.13
2019-02-23T19:35:41.646Z,41.30
2019-02-23T19:38:23.672Z,24.67
2019-02-23T19:41:05.974Z,22.20
2019-02-23T19:43:47.737Z,17.97
2019-02-23T19:46:29.793Z,19.53
2019-02-23T19:49:12.072Z,13.77
2019-02-23T19:51:56.575Z,13.50
2019-02-23T19:54:37.965Z,14.20
2019-02-23T19:57:08.340Z,15.97
2019-02-23T19:59:49.925Z,18.27
2019-02-23T20:02:32.631Z,14.90
2019-02-23T20:05:15.758Z,15.50
2019-02-23T20:07:58.358Z,15.10
2019-02-23T20:10:40.482Z,15.87
2019-02-23T20:13:22.337Z,13.83
2019-02-23T20:16:10.208Z,17.77
2019-02-23T20:21:49.600Z,20.90
2019-02-23T20:24:31.494Z,19.17
2019-02-23T20:27:13.299Z,20.03
2019-02-23T20:29:55.985Z,18.97
2019-02-23T20:35:27.643Z,20.20
2019-02-23T20:38:16.517Z,21.23
2019-02-23T20:40:59.304Z,19.67
2019-02-23T20:43:45.461Z,20.77
2019-02-23T20:46:28.059Z,17.17
2019-02-23T20:49:12.078Z,17.93
2019-02-23T20:51:58.587Z,17.77
2019-02-23T20:55:04.958Z,19.83
2019-02-23T20:57:42.709Z,20.40
2019-02-23T21:03:09.394Z,17.73
2019-02-23T21:05:51.423Z,19.37
2019-02-23T21:08:33.510Z,16.83
2019-02-23T21:11:15.411Z,17.73
2019-02-23T21:13:59.327Z,15.27
2019-02-23T21:16:41.084Z,15.77
2019-02-23T21:19:23.301Z,16.43
2019-02-23T21:22:05.517Z,16.33
2019-02-23T21:25:13.583Z,18.03
2019-02-23T21:27:55.375Z,20.40
2019-02-23T21:30:25.773Z,21.47
2019-02-23T21:33:16.164Z,16.33
2019-02-23T21:35:58.167Z,18.27
2019-02-23T21:38:40.350Z,20.30
2019-02-23T21:41:10.889Z,19.47
2019-02-23T21:44:00.242Z,21.70
2019-02-23T21:46:42.317Z,18.83
2019-02-23T21:49:24.565Z,19.87
2019-02-23T21:52:07.201Z,21.23
